Time;durP1;ratioP1;P1;durP2;ratioP2;P2;SDS_P1;SDS_P2;PMS_P1;PMS_P2;Temp;Humidity;BMP_temperature;BMP_pressure;BME280_temperature;BME280_humidity;BME280_pressure;Samples;Min_cycle;Max_cycle;Signal;HPM_P1;HPM_P2
2022/12/28 00:00:56;;;;;;;3.20;1.90;;;1.90;99.90;1.30;100614;;;;570857;251;24069;-81
2022/12/28 00:03:23;;;;;;;8.37;2.53;;;2.00;99.90;1.40;100606;;;;571774;251;24079;-82
2022/12/28 00:05:51;;;;;;;5.33;2.40;;;2.10;99.90;1.50;100613;;;;571179;251;24103;-81
2022/12/28 00:08:19;;;;;;;4.33;2.03;;;2.20;99.90;1.60;100622;;;;570898;251;24049;-77
2022/12/28 00:10:47;;;;;;;9.50;2.77;;;2.20;99.90;1.70;100622;;;;569630;251;24056;-79
2022/12/28 00:13:15;;;;;;;3.53;2.10;;;2.40;99.90;1.80;100619;;;;570002;251;24038;-81
2022/12/28 00:15:43;;;;;;;2.20;1.67;;;2.40;99.90;1.90;100622;;;;571178;251;24081;-80
2022/12/28 00:18:11;;;;;;;2.43;1.90;;;2.50;99.90;1.90;100621;;;;563501;251;24074;-85
2022/12/28 00:20:39;;;;;;;4.17;1.70;;;2.60;99.90;2.00;100617;;;;573285;250;24089;-81
2022/12/28 00:23:07;;;;;;;7.07;1.63;;;2.70;99.90;2.10;100618;;;;549294;256;24150;-82
2022/12/28 00:25:35;;;;;;;4.93;2.92;;;2.70;99.90;2.10;100608;;;;562839;245;35270;-79
2022/12/28 00:28:03;;;;;;;3.90;2.40;;;2.80;99.90;2.20;100614;;;;548359;254;24109;-81
2022/12/28 00:30:31;;;;;;;1.80;1.70;;;2.80;99.90;2.20;100606;;;;559826;254;24145;-81
2022/12/28 00:32:59;;;;;;;4.83;3.23;;;2.90;99.90;2.30;100607;;;;561847;251;24083;-80
2022/12/28 00:35:27;;;;;;;7.00;2.00;;;2.90;99.90;2.30;100603;;;;571205;250;24094;-81
2022/12/28 00:37:55;;;;;;;3.00;2.03;;;2.90;99.90;2.30;100601;;;;561152;249;24101;-80
2022/12/28 00:40:23;;;;;;;2.47;2.20;;;2.90;99.90;2.30;100593;;;;581331;243;24023;-81
2022/12/28 00:42:51;;;;;;;8.37;2.10;;;3.00;99.90;2.30;100586;;;;561972;251;24075;-80
2022/12/28 00:45:19;;;;;;;4.27;2.60;;;3.00;99.90;2.30;100586;;;;561552;250;28276;-81
2022/12/28 00:47:46;;;;;;;3.10;1.83;;;3.00;99.90;2.30;100587;;;;573395;250;24107;-81
2022/12/28 00:50:14;;;;;;;8.53;2.63;;;2.90;99.90;2.30;100598;;;;573383;250;24116;-81
2022/12/28 00:52:42;;;;;;;6.70;2.50;;;2.90;99.90;2.20;100592;;;;573107;251;24077;-80
2022/12/28 00:55:10;;;;;;;4.43;2.37;;;2.90;99.90;2.20;100601;;;;573313;251;24109;-79
2022/12/28 00:57:39;;;;;;;4.10;2.57;;;2.90;99.90;2.20;100595;;;;573194;251;24096;-80
2022/12/28 01:00:10;;;;;;;7.60;2.50;;;2.80;99.90;2.10;100591;;;;563009;251;24114;-80
2022/12/28 01:02:34;;;;;;;6.30;2.27;;;2.80;99.90;2.10;100597;;;;562119;251;24121;-80
2022/12/28 01:05:03;;;;;;;2.93;2.63;;;2.80;99.90;2.10;100591;;;;573155;251;24123;-80
2022/12/28 01:07:31;;;;;;;6.70;3.20;;;2.80;99.90;2.20;100583;;;;562958;247;24095;-79
2022/12/28 01:09:59;;;;;;;6.57;2.77;;;2.80;99.90;2.20;100586;;;;573294;251;24090;-80
2022/12/28 01:12:26;;;;;;;5.07;2.90;;;2.80;99.90;2.20;100581;;;;572785;251;24137;-80
2022/12/28 01:14:54;;;;;;;8.73;3.53;;;2.80;99.90;2.20;100577;;;;562597;251;24092;-78
2022/12/28 01:17:22;;;;;;;8.33;4.00;;;2.80;99.90;2.10;100571;;;;572491;251;24492;-81
2022/12/28 01:19:50;;;;;;;8.43;3.07;;;2.80;99.90;2.10;100561;;;;573267;251;24094;-79
2022/12/28 01:22:18;;;;;;;7.43;3.73;;;2.70;99.90;2.00;100559;;;;573138;251;24137;-80
2022/12/28 01:24:46;;;;;;;5.23;3.50;;;2.70;99.90;2.00;100569;;;;573179;251;24099;-80
2022/12/28 01:27:14;;;;;;;6.07;4.10;;;2.60;99.90;1.90;100570;;;;572967;251;24080;-80
2022/12/28 01:29:42;;;;;;;7.17;4.13;;;2.50;99.90;1.80;100556;;;;572827;251;24093;-80
2022/12/28 01:32:13;;;;;;;8.57;4.07;;;2.50;99.90;1.90;100550;;;;573278;251;24103;-82
2022/12/28 01:34:38;;;;;;;6.23;4.27;;;2.50;99.90;1.90;100563;;;;572318;251;24110;-81
2022/12/28 01:37:06;;;;;;;9.60;4.37;;;2.50;99.90;1.90;100566;;;;563015;251;24179;-80
2022/12/28 01:39:33;;;;;;;7.40;4.80;;;2.50;99.90;2.00;100565;;;;573242;251;24142;-80
2022/12/28 01:42:01;;;;;;;8.03;4.77;;;2.60;99.90;2.00;100564;;;;573247;251;24090;-81
2022/12/28 01:44:41;;;;;;;8.27;3.57;;;2.60;99.90;2.10;100571;;;;574401;248;24083;-81
2022/12/28 01:47:23;;;;;;;7.80;4.03;;;2.70;99.90;2.10;100565;;;;564057;251;24108;-80
2022/12/28 01:49:57;;;;;;;8.67;4.70;;;2.80;99.90;2.20;100559;;;;563765;251;24088;-80
2022/12/28 01:52:33;;;;;;;12.37;3.83;;;2.80;99.90;2.20;100560;;;;565344;251;24108;-81
2022/12/28 01:55:10;;;;;;;7.30;3.87;;;2.90;99.90;2.30;100552;;;;563161;251;24107;-80
2022/12/28 01:57:47;;;;;;;9.47;4.20;;;2.80;99.90;2.30;100553;;;;561673;251;24098;-80
2022/12/28 02:00:14;;;;;;;4.90;3.70;;;2.90;99.90;2.30;100548;;;;563019;251;24194;-80
2022/12/28 02:02:42;;;;;;;8.10;4.30;;;2.90;99.90;2.20;100555;;;;563042;251;24075;-80
2022/12/28 02:05:13;;;;;;;7.60;3.33;;;2.90;99.90;2.20;100547;;;;552732;257;24159;-80
2022/12/28 02:07:41;;;;;;;11.27;4.03;;;2.90;99.90;2.30;100546;;;;564234;250;24233;-81
2022/12/28 02:10:08;;;;;;;9.73;4.23;;;2.90;99.90;2.20;100540;;;;560748;256;24165;-80
2022/12/28 02:12:36;;;;;;;6.03;4.00;;;2.90;99.90;2.20;100544;;;;552779;257;24133;-79
2022/12/28 02:15:08;;;;;;;6.30;3.70;;;2.90;99.90;2.20;100535;;;;565185;250;24102;-80
2022/12/28 02:17:33;;;;;;;7.57;4.77;;;2.90;99.90;2.10;100527;;;;564280;250;24226;-79
2022/12/28 02:20:00;;;;;;;8.80;4.10;;;2.80;99.90;2.10;100530;;;;573121;250;24102;-80
2022/12/28 02:22:58;;;;;;;13.30;4.43;;;2.70;99.90;2.00;100538;;;;573628;250;24103;-81
2022/12/28 02:25:31;;;;;;;15.87;4.87;;;2.70;99.90;1.90;100540;;;;562404;255;24129;-81
2022/12/28 02:28:45;;;;;;;15.47;5.53;;;2.60;99.90;1.90;100546;;;;550229;258;24147;-80
2022/12/28 02:31:25;;;;;;;10.60;6.27;;;2.50;99.90;1.90;100534;;;;565464;251;24083;-80
2022/12/28 02:33:56;;;;;;;14.83;7.33;;;2.50;99.90;1.90;100522;;;;561680;251;24100;-78
2022/12/28 02:36:24;;;;;;;13.50;7.37;;;2.50;99.90;1.90;100537;;;;552313;257;24153;-80
2022/12/28 02:39:00;;;;;;;12.43;6.83;;;2.50;99.90;1.90;100529;;;;564925;250;24150;-82
2022/12/28 02:41:29;;;;;;;16.00;8.23;;;2.50;99.90;1.90;100516;;;;551884;257;24139;-82
2022/12/28 02:43:57;;;;;;;11.83;7.43;;;2.50;99.90;2.00;100525;;;;564429;250;24269;-81
2022/12/28 02:52:08;;;;;;;11.07;6.97;;;2.60;99.90;2.10;100522;;;;552577;257;24114;-80
2022/12/28 02:58:47;;;;;;;17.80;6.70;;;2.90;99.90;2.30;100523;;;;552164;257;24140;-81
2022/12/28 03:01:41;;;;;;;10.13;6.30;;;3.00;99.90;2.40;100527;;;;546023;259;24132;-79
2022/12/28 03:04:17;;;;;;;9.50;6.13;;;2.90;99.90;2.40;100512;;;;552374;257;24168;-81
2022/12/28 03:09:36;;;;;;;10.57;4.20;;;3.10;99.90;2.50;100503;;;;573187;244;24095;-81
2022/12/28 03:12:28;;;;;;;5.80;4.17;;;3.10;99.90;2.60;100501;;;;560664;256;24113;-81
2022/12/28 03:15:09;;;;;;;8.23;4.20;;;3.20;99.90;2.60;100500;;;;565031;250;25133;-81
2022/12/28 03:31:26;;;;;;;5.60;3.73;;;3.20;99.90;2.50;100465;;;;561262;254;24125;-81
2022/12/28 03:34:05;;;;;;;9.30;4.93;;;3.10;99.90;2.40;100460;;;;560204;250;35256;-82
2022/12/28 03:36:29;;;;;;;9.50;4.20;;;3.00;99.90;2.40;100458;;;;552514;257;24155;-80
2022/12/28 03:39:06;;;;;;;8.57;3.90;;;3.00;99.90;2.40;100463;;;;564878;250;24094;-81
2022/12/28 03:41:37;;;;;;;5.43;3.03;;;3.00;99.90;2.30;100452;;;;562162;251;24120;-80
2022/12/28 03:44:23;;;;;;;6.63;3.03;;;2.90;99.90;2.30;100468;;;;562956;251;24176;-80
2022/12/28 03:47:05;;;;;;;6.93;2.90;;;2.90;99.90;2.20;100458;;;;562452;251;24107;-82
2022/12/28 03:49:36;;;;;;;13.93;3.37;;;2.90;99.90;2.20;100445;;;;562964;251;24103;-81
2022/12/28 03:52:01;;;;;;;4.60;3.33;;;2.80;99.90;2.10;100447;;;;572515;251;24221;-79
2022/12/28 03:54:29;;;;;;;7.43;3.30;;;2.80;99.90;2.00;100450;;;;552982;257;24168;-80
2022/12/28 03:56:57;;;;;;;4.80;3.30;;;2.70;99.90;2.00;100454;;;;543697;261;24216;-80
2022/12/28 03:59:24;;;;;;;8.90;2.77;;;2.60;99.90;1.90;100445;;;;544146;261;24083;-80
2022/12/28 04:01:52;;;;;;;5.93;2.77;;;2.50;99.90;1.80;100440;;;;553043;257;24138;-79
2022/12/28 04:04:21;;;;;;;7.73;3.03;;;2.40;99.90;1.80;100440;;;;556473;257;24113;-80
2022/12/28 04:06:49;;;;;;;6.13;3.30;;;2.40;99.90;1.80;100435;;;;556924;256;24125;-80
2022/12/28 04:09:18;;;;;;;10.40;4.43;;;2.40;99.90;1.80;100436;;;;557284;256;24138;-79
2022/12/28 04:11:46;;;;;;;11.07;4.67;;;2.50;99.90;1.80;100435;;;;569670;250;24086;-78
2022/12/28 04:14:14;;;;;;;10.57;4.50;;;2.40;99.90;1.90;100438;;;;574170;250;24077;-82
2022/12/28 04:16:42;;;;;;;5.37;3.87;;;2.50;99.90;1.90;100430;;;;573883;250;24079;-80
2022/12/28 04:19:10;;;;;;;8.00;3.77;;;2.50;99.90;1.90;100424;;;;573743;250;24083;-82
2022/12/28 04:21:38;;;;;;;10.67;3.60;;;2.50;99.90;1.80;100420;;;;566465;250;24078;-85
2022/12/28 04:24:06;;;;;;;11.40;4.40;;;2.40;99.90;1.60;100413;;;;572100;248;24094;-81
2022/12/28 04:26:34;;;;;;;9.30;3.97;;;2.30;99.90;1.50;100416;;;;562081;253;24180;-81
2022/12/28 04:29:02;;;;;;;11.93;4.13;;;2.20;99.90;1.40;100425;;;;552825;257;24134;-80
2022/12/28 04:31:29;;;;;;;6.83;4.40;;;2.10;99.90;1.30;100410;;;;574161;245;24068;-80
2022/12/28 04:33:57;;;;;;;10.53;4.10;;;1.90;99.90;1.20;100404;;;;556814;252;24136;-81
2022/12/28 04:36:25;;;;;;;7.60;4.37;;;1.80;99.90;1.10;100400;;;;563389;254;24123;-80
2022/12/28 04:38:53;;;;;;;8.37;4.23;;;1.70;99.90;1.00;100393;;;;545260;260;24175;-80
2022/12/28 04:41:21;;;;;;;8.07;4.03;;;1.60;99.90;0.90;100393;;;;544386;260;24152;-80
2022/12/28 04:43:52;;;;;;;8.30;4.20;;;1.50;99.90;0.80;100392;;;;563229;255;24133;-80
2022/12/28 04:46:18;;;;;;;8.23;4.33;;;1.30;99.90;0.70;100378;;;;552796;260;24156;-78
2022/12/28 04:48:46;;;;;;;9.10;4.40;;;1.40;99.90;0.60;100381;;;;552221;257;24104;-80
2022/12/28 04:51:19;;;;;;;14.23;5.07;;;1.30;99.90;0.50;100372;;;;574972;247;24095;-80
2022/12/28 04:53:47;;;;;;;13.83;4.67;;;1.20;99.90;0.50;100375;;;;563185;254;24112;-80
2022/12/28 04:56:15;;;;;;;7.20;4.23;;;1.10;99.90;0.40;100371;;;;553505;256;24124;-81
2022/12/28 04:58:45;;;;;;;14.53;5.43;;;1.00;99.90;0.40;100365;;;;543563;260;24198;-79
2022/12/28 05:01:11;;;;;;;15.17;5.83;;;1.00;99.90;0.30;100361;;;;554013;256;24119;-80
2022/12/28 05:03:39;;;;;;;9.50;5.67;;;1.00;99.90;0.30;100357;;;;563178;254;24105;-80
2022/12/28 05:06:07;;;;;;;9.37;5.40;;;0.90;99.90;0.20;100364;;;;563112;254;24124;-79
2022/12/28 05:08:35;;;;;;;11.40;4.73;;;0.90;99.90;0.20;100353;;;;554219;256;24120;-81
2022/12/28 05:11:03;;;;;;;12.23;5.60;;;0.90;99.90;0.10;100346;;;;554064;256;24209;-80
2022/12/28 05:13:31;;;;;;;12.37;5.67;;;0.80;99.90;0.20;100342;;;;554648;256;24120;-81
2022/12/28 05:16:06;;;;;;;12.53;5.70;;;0.80;99.90;0.20;100338;;;;562813;254;24111;-81
2022/12/28 05:18:33;;;;;;;8.97;6.17;;;0.80;99.90;0.10;100333;;;;554797;255;24134;-80
2022/12/28 05:21:04;;;;;;;11.97;6.23;;;0.80;99.90;0.10;100330;;;;555752;255;24113;-80
2022/12/28 05:23:36;;;;;;;12.90;6.47;;;0.80;99.90;0.10;100325;;;;555175;255;25185;-80
2022/12/28 05:26:03;;;;;;;13.10;6.30;;;0.80;99.90;0.10;100316;;;;554708;255;24196;-81
2022/12/28 05:28:31;;;;;;;14.87;7.10;;;0.80;99.90;0.10;100317;;;;554465;256;24132;-80
2022/12/28 05:30:59;;;;;;;10.43;6.93;;;0.80;99.90;0.10;100321;;;;554436;256;24123;-79
2022/12/28 05:33:29;;;;;;;14.60;7.77;;;0.80;99.90;0.20;100309;;;;554596;256;24129;-79
2022/12/28 05:35:57;;;;;;;11.23;7.67;;;0.90;99.90;0.30;100314;;;;563432;254;24122;-78
2022/12/28 05:38:26;;;;;;;23.67;8.90;;;1.00;99.90;0.40;100312;;;;554922;256;24135;-79
2022/12/28 05:40:54;;;;;;;13.80;8.27;;;1.00;99.90;0.50;100312;;;;554335;256;24179;-81
2022/12/28 05:43:22;;;;;;;13.97;9.13;;;1.10;99.90;0.60;100316;;;;554054;256;24268;-81
2022/12/28 05:45:49;;;;;;;13.03;8.47;;;1.20;99.90;0.70;100314;;;;554502;256;24111;-80
2022/12/28 05:48:18;;;;;;;14.70;8.87;;;1.50;99.90;0.80;100315;;;;554510;256;24116;-80
2022/12/28 05:50:46;;;;;;;13.40;8.97;;;1.40;99.90;0.90;100309;;;;554421;256;24128;-80
2022/12/28 05:53:14;;;;;;;14.77;9.83;;;1.50;99.90;1.00;100304;;;;554092;256;24115;-80
2022/12/28 05:55:42;;;;;;;12.37;10.17;;;1.70;99.90;1.10;100303;;;;554230;256;24111;-80
2022/12/28 05:58:10;;;;;;;11.50;9.40;;;1.80;99.90;1.20;100294;;;;554176;256;24125;-80
2022/12/28 06:00:38;;;;;;;18.07;9.83;;;1.80;99.90;1.20;100292;;;;554177;256;24127;-80
2022/12/28 06:03:06;;;;;;;14.27;9.07;;;1.90;99.90;1.30;100288;;;;554160;256;24125;-81
2022/12/28 06:05:34;;;;;;;11.30;10.10;;;1.90;99.90;1.30;100272;;;;554301;256;24162;-80
2022/12/28 06:08:04;;;;;;;14.70;8.97;;;2.00;99.90;1.30;100269;;;;554152;256;24120;-80
2022/12/28 06:10:33;;;;;;;16.07;10.80;;;2.00;99.90;1.40;100267;;;;554551;256;24114;-81
2022/12/28 06:13:01;;;;;;;16.60;12.30;;;2.00;99.90;1.40;100255;;;;554206;256;24161;-81
2022/12/28 06:15:29;;;;;;;12.07;8.80;;;2.00;99.90;1.40;100258;;;;553615;256;24112;-80
2022/12/28 06:17:56;;;;;;;15.90;10.13;;;2.00;99.90;1.40;100248;;;;554234;256;24166;-82
2022/12/28 06:20:24;;;;;;;11.13;9.83;;;2.00;99.90;1.40;100253;;;;554164;256;24125;-81
2022/12/28 06:22:52;;;;;;;14.50;9.87;;;2.00;99.90;1.40;100249;;;;554273;256;24108;-80
2022/12/28 06:25:20;;;;;;;13.13;10.23;;;2.00;99.90;1.40;100256;;;;554211;256;24144;-79
2022/12/28 06:27:48;;;;;;;12.77;10.07;;;2.00;99.90;1.40;100254;;;;554130;253;24124;-81
2022/12/28 06:30:16;;;;;;;13.03;10.87;;;2.00;99.90;1.40;100255;;;;553551;256;24098;-82
2022/12/28 06:32:44;;;;;;;17.67;10.20;;;2.00;99.90;1.40;100258;;;;571319;246;24068;-80
2022/12/28 06:35:12;;;;;;;18.53;11.03;;;2.00;99.90;1.40;100264;;;;575188;246;24065;-80
2022/12/28 06:37:40;;;;;;;22.83;11.00;;;2.00;99.90;1.40;100261;;;;575106;245;24079;-80
2022/12/28 06:40:08;;;;;;;16.67;11.20;;;2.00;99.90;1.40;100260;;;;573177;242;24111;-81
2022/12/28 06:42:36;;;;;;;16.10;10.40;;;2.00;99.90;1.40;100247;;;;553315;254;24121;-80
2022/12/28 06:45:04;;;;;;;14.37;10.83;;;2.00;99.90;1.40;100242;;;;575833;246;24094;-80
2022/12/28 06:47:35;;;;;;;17.50;12.47;;;2.00;99.90;1.40;100241;;;;575783;246;24073;-80
2022/12/28 06:50:04;;;;;;;24.53;13.93;;;2.00;99.90;1.40;100232;;;;561278;255;24123;-80
2022/12/28 06:52:28;;;;;;;21.83;13.90;;;2.10;99.90;1.40;100234;;;;576247;245;24080;-80
2022/12/28 06:54:56;;;;;;;17.93;12.77;;;2.10;99.90;1.40;100233;;;;574854;246;24055;-81
2022/12/28 06:57:25;;;;;;;14.73;11.87;;;2.10;99.90;1.50;100234;;;;573671;246;24055;-80
2022/12/28 06:59:54;;;;;;;18.53;14.63;;;2.10;99.90;1.50;100243;;;;581419;246;24053;-81
2022/12/28 07:02:21;;;;;;;21.50;15.20;;;2.10;99.90;1.50;100224;;;;569088;248;24098;-79
2022/12/28 07:04:49;;;;;;;18.33;12.27;;;2.10;99.90;1.50;100238;;;;568733;246;24061;-81
2022/12/28 07:07:17;;;;;;;14.17;10.77;;;2.20;99.90;1.60;100236;;;;562432;251;24107;-81
2022/12/28 07:09:45;;;;;;;19.27;11.40;;;2.20;99.90;1.60;100232;;;;562515;251;24053;-81
2022/12/28 07:12:13;;;;;;;18.47;12.70;;;2.20;99.90;1.60;100222;;;;562095;251;24045;-82
2022/12/28 07:14:42;;;;;;;17.17;11.80;;;2.20;99.90;1.60;100218;;;;562111;251;24053;-81
2022/12/28 07:17:10;;;;;;;20.07;11.90;;;2.20;99.90;1.60;100203;;;;562199;251;24055;-81
2022/12/28 07:19:38;;;;;;;16.07;11.47;;;2.20;99.90;1.60;100203;;;;563370;251;24041;-79
2022/12/28 07:22:06;;;;;;;17.43;11.20;;;2.30;99.90;1.70;100203;;;;562353;251;24070;-81
2022/12/28 07:24:34;;;;;;;16.03;12.57;;;2.30;99.90;1.70;100200;;;;562238;251;24050;-80
2022/12/28 07:27:02;;;;;;;19.03;10.97;;;2.30;99.90;1.70;100192;;;;562079;251;24078;-80
2022/12/28 07:29:29;;;;;;;19.33;12.03;;;2.30;99.90;1.70;100192;;;;562185;251;24089;-81
2022/12/28 07:31:57;;;;;;;22.67;12.63;;;2.30;99.90;1.70;100192;;;;561490;251;24148;-81
2022/12/28 07:34:26;;;;;;;14.90;11.40;;;2.30;99.90;1.70;100199;;;;562450;251;24093;-81
2022/12/28 07:36:53;;;;;;;18.30;10.40;;;2.40;99.90;1.80;100209;;;;562325;251;24071;-81
2022/12/28 07:39:21;;;;;;;17.60;8.73;;;2.40;99.90;1.80;100199;;;;562130;251;24086;-80
2022/12/28 07:41:50;;;;;;;12.13;7.03;;;2.40;99.90;1.80;100202;;;;571918;249;24036;-81
2022/12/28 07:44:18;;;;;;;13.33;8.13;;;2.40;99.90;1.80;100200;;;;572545;249;24046;-82
2022/12/28 07:46:46;;;;;;;13.07;8.30;;;2.40;99.90;1.80;100194;;;;572303;249;24050;-81
2022/12/28 07:49:13;;;;;;;12.07;8.23;;;2.40;99.90;1.80;100191;;;;571694;249;24060;-81
2022/12/28 07:51:42;;;;;;;16.70;7.70;;;2.40;99.90;1.70;100190;;;;571973;249;24079;-81
2022/12/28 07:54:10;;;;;;;14.37;8.43;;;2.40;99.90;1.80;100185;;;;571936;249;24038;-82
2022/12/28 07:56:38;;;;;;;10.17;7.20;;;2.40;99.90;1.80;100175;;;;571931;249;24045;-81
2022/12/28 07:59:09;;;;;;;14.70;8.03;;;2.40;99.90;1.80;100170;;;;571924;249;24056;-81
2022/12/28 08:01:35;;;;;;;12.90;8.30;;;2.40;99.90;1.80;100165;;;;561564;251;24065;-81
2022/12/28 08:04:02;;;;;;;9.67;6.00;;;2.40;99.90;1.80;100160;;;;564276;251;24055;-81
2022/12/28 08:06:30;;;;;;;15.40;7.87;;;2.50;99.90;1.90;100171;;;;564366;251;24056;-81
2022/12/28 08:08:58;;;;;;;17.53;7.30;;;2.50;99.90;1.90;100162;;;;564018;251;24063;-82
2022/12/28 08:11:27;;;;;;;12.43;7.60;;;2.50;99.90;1.90;100153;;;;564079;251;24107;-81
2022/12/28 08:13:55;;;;;;;25.60;8.93;;;2.50;99.90;1.90;100156;;;;551362;257;24123;-81
2022/12/28 08:16:25;;;;;;;14.17;7.50;;;2.50;99.90;1.90;100147;;;;551972;257;25113;-82
2022/12/28 08:18:52;;;;;;;18.70;7.07;;;2.60;99.90;2.00;100146;;;;540952;262;24161;-79
2022/12/28 08:21:20;;;;;;;16.30;7.93;;;2.60;99.90;2.00;100150;;;;551640;257;24094;-80
2022/12/28 08:23:48;;;;;;;20.37;8.63;;;2.70;99.90;2.00;100147;;;;541768;262;24136;-82
2022/12/28 08:26:22;;;;;;;17.43;9.37;;;2.60;99.90;2.10;100150;;;;553164;255;24161;-81
2022/12/28 08:28:52;;;;;;;12.37;7.00;;;2.70;99.90;2.10;100147;;;;576784;245;24054;-81
2022/12/28 08:31:17;;;;;;;13.20;7.80;;;2.70;99.90;2.20;100151;;;;578663;246;24074;-82
2022/12/28 08:33:45;;;;;;;11.33;7.40;;;2.80;99.90;2.20;100153;;;;576449;246;24097;-81
2022/12/28 08:36:13;;;;;;;15.23;7.83;;;2.80;99.90;2.30;100147;;;;572704;246;24098;-81
2022/12/28 08:38:41;;;;;;;10.23;6.20;;;2.90;99.90;2.30;100158;;;;577706;245;24147;-80
2022/12/28 08:41:09;;;;;;;11.30;6.97;;;2.90;99.90;2.30;100152;;;;572968;250;24086;-81
2022/12/28 08:43:38;;;;;;;13.97;7.33;;;2.90;99.90;2.30;100157;;;;565484;250;24150;-80
2022/12/28 08:46:09;;;;;;;14.73;7.30;;;2.90;99.90;2.40;100153;;;;564783;250;24080;-81
2022/12/28 08:48:34;;;;;;;14.47;7.33;;;3.00;99.90;2.40;100153;;;;565325;250;24102;-81
2022/12/28 08:51:01;;;;;;;10.53;7.13;;;3.00;99.90;2.40;100143;;;;566554;250;24096;-81
2022/12/28 08:53:33;;;;;;;14.23;7.40;;;3.00;99.90;2.40;100147;;;;575856;248;24103;-80
2022/12/28 08:56:04;;;;;;;16.40;8.47;;;3.00;99.90;2.40;100136;;;;567200;250;24117;-81
2022/12/28 08:58:32;;;;;;;10.63;6.53;;;3.00;99.90;2.50;100145;;;;565402;250;24094;-81
2022/12/28 09:01:06;;;;;;;10.17;6.43;;;3.10;99.90;2.50;100139;;;;567876;246;24121;-81
2022/12/28 09:03:37;;;;;;;12.47;6.57;;;3.10;99.90;2.60;100133;;;;576589;246;24125;-80
2022/12/28 09:06:05;;;;;;;15.93;8.00;;;3.20;99.90;2.60;100138;;;;585976;245;24088;-81
2022/12/28 09:08:33;;;;;;;11.33;7.00;;;3.20;99.90;2.60;100132;;;;576637;245;24071;-79
2022/12/28 09:11:04;;;;;;;12.83;8.00;;;3.30;99.90;2.70;100137;;;;574301;246;24179;-79
2022/12/28 09:13:32;;;;;;;20.50;12.20;;;3.30;99.90;2.70;100131;;;;569534;250;46393;-80
2022/12/28 09:16:03;;;;;;;17.67;9.20;;;3.30;99.90;2.70;100124;;;;567562;246;24078;-79
2022/12/28 09:18:31;;;;;;;12.40;7.27;;;3.30;99.90;2.80;100129;;;;572296;246;25122;-79
2022/12/28 09:20:55;;;;;;;16.20;9.73;;;3.30;99.90;2.80;100124;;;;557394;251;35398;-79
2022/12/28 09:23:23;;;;;;;12.70;7.67;;;3.40;99.90;2.80;100130;;;;564749;251;24095;-82
2022/12/28 09:25:51;;;;;;;16.73;8.37;;;3.40;99.90;2.90;100125;;;;564913;251;24084;-81
2022/12/28 09:28:19;;;;;;;11.40;7.23;;;3.50;99.90;2.90;100126;;;;567382;246;24069;-81
2022/12/28 09:30:47;;;;;;;8.87;6.43;;;3.50;99.90;2.90;100115;;;;566275;250;24111;-81
2022/12/28 09:34:00;;;;;;;13.80;7.17;;;3.50;99.90;2.90;100118;;;;565914;251;24213;-80
2022/12/28 09:35:47;;;;;;;11.03;6.50;;;3.50;99.90;2.90;100104;;;;566465;245;24129;-80
2022/12/28 09:38:15;;;;;;;21.73;10.30;;;3.50;99.90;2.90;100101;;;;566225;251;24133;-80
2022/12/28 09:40:46;;;;;;;9.27;6.53;;;3.50;99.90;3.00;100104;;;;566258;251;24103;-80
2022/12/28 09:43:15;;;;;;;12.03;7.83;;;3.60;99.90;3.00;100092;;;;553767;256;24136;-81
2022/12/28 09:45:42;;;;;;;11.53;7.07;;;3.50;99.90;3.00;100091;;;;552188;257;24212;-79
2022/12/28 09:48:08;;;;;;;10.93;7.20;;;3.50;99.90;3.00;100076;;;;550221;261;24158;-81
2022/12/28 09:50:36;;;;;;;12.70;7.80;;;3.60;99.90;3.00;100062;;;;566495;250;24090;-81
2022/12/28 09:53:21;;;;;;;10.60;7.83;;;3.60;99.90;3.00;100058;;;;545822;260;24221;-81
2022/12/28 09:56:12;;;;;;;15.23;7.00;;;3.60;99.90;3.00;100051;;;;553904;252;24240;-81
2022/12/28 09:58:40;;;;;;;7.93;6.43;;;3.60;99.90;3.10;100053;;;;549007;255;24117;-81
2022/12/28 10:01:08;;;;;;;11.40;7.00;;;3.70;99.90;3.10;100037;;;;542933;261;24160;-81
2022/12/28 10:03:39;;;;;;;8.50;7.47;;;3.70;99.90;3.10;100042;;;;553830;256;24123;-81
2022/12/28 10:06:09;;;;;;;12.17;6.63;;;3.70;99.90;3.20;100032;;;;563466;253;24134;-82
2022/12/28 10:08:37;;;;;;;9.57;6.57;;;3.80;99.90;3.20;100025;;;;545297;255;24153;-82
2022/12/28 10:11:09;;;;;;;9.90;6.93;;;3.80;99.90;3.30;100023;;;;543493;260;24135;-81
2022/12/28 10:13:36;;;;;;;10.97;5.80;;;3.90;99.90;3.30;100014;;;;547773;260;24140;-81
2022/12/28 10:16:08;;;;;;;8.50;6.17;;;4.00;99.90;3.40;99999;;;;550088;256;24162;-81
2022/12/28 10:18:36;;;;;;;14.80;6.70;;;4.00;99.90;3.40;99993;;;;551844;255;24179;-81
2022/12/28 10:21:04;;;;;;;9.90;6.03;;;4.00;99.90;3.40;99986;;;;542626;261;24240;-82
2022/12/28 10:23:29;;;;;;;12.90;6.63;;;4.00;99.90;3.40;99981;;;;565971;251;24115;-80
2022/12/28 10:25:56;;;;;;;9.00;5.93;;;4.00;99.90;3.40;99966;;;;541532;261;24231;-80
2022/12/28 10:28:24;;;;;;;7.83;5.87;;;4.00;99.90;3.50;99960;;;;565680;250;24090;-81
2022/12/28 10:31:07;;;;;;;6.30;5.70;;;4.00;99.90;3.50;99945;;;;551727;255;24115;-81
2022/12/28 10:33:41;;;;;;;8.77;5.63;;;4.10;99.90;3.50;99933;;;;565110;250;24098;-81
2022/12/28 10:36:17;;;;;;;6.70;5.67;;;4.00;99.90;3.50;99936;;;;562285;253;24135;-81
2022/12/28 10:38:44;;;;;;;7.07;5.90;;;4.10;99.90;3.60;99968;;;;542317;261;24169;-81
2022/12/28 10:41:15;;;;;;;13.13;6.23;;;4.10;99.90;3.60;99971;;;;566319;250;24125;-81
2022/12/28 10:43:40;;;;;;;7.60;5.60;;;4.20;99.90;3.60;99969;;;;555002;257;24150;-80
2022/12/28 10:46:08;;;;;;;8.33;5.50;;;4.20;99.90;3.60;99961;;;;573377;250;24160;-82
2022/12/28 10:48:36;;;;;;;6.87;5.43;;;4.20;99.90;3.60;99939;;;;544165;259;24206;-82
2022/12/28 10:51:12;;;;;;;9.60;5.90;;;4.20;99.90;3.50;99953;;;;564446;250;24123;-81
2022/12/28 10:53:50;;;;;;;7.93;5.57;;;4.10;99.90;3.50;99964;;;;562168;255;24135;-81
2022/12/28 10:56:34;;;;;;;7.77;5.60;;;4.10;99.90;3.60;99953;;;;544176;258;24200;-80
2022/12/28 10:59:12;;;;;;;9.43;4.43;;;4.10;99.90;3.60;99947;;;;544235;260;24132;-83
2022/12/28 11:01:40;;;;;;;6.43;5.43;;;4.20;99.90;3.60;99938;;;;545018;260;24211;-80
2022/12/28 11:04:20;;;;;;;7.97;5.27;;;4.20;99.90;3.60;99936;;;;544245;261;24154;-83
2022/12/28 11:06:54;;;;;;;11.47;5.90;;;4.20;99.90;3.60;99932;;;;569013;245;24089;-82
2022/12/28 11:09:22;;;;;;;5.70;4.43;;;4.20;99.90;3.70;99928;;;;560735;251;24097;-81
2022/12/28 11:11:53;;;;;;;6.57;5.20;;;4.30;99.90;3.70;99927;;;;556423;256;24121;-78
2022/12/28 11:14:29;;;;;;;6.33;4.40;;;4.30;99.90;3.80;99912;;;;559598;251;24031;-79
2022/12/28 11:17:22;;;;;;;8.20;3.80;;;4.30;99.90;3.80;99914;;;;554870;255;24043;-79
2022/12/28 11:35:57;;;;;;;13.67;4.23;;;4.60;99.90;4.10;99876;;;;579033;235;24109;-78
2022/12/28 11:56:29;;;;;;;8.50;4.67;;;5.00;99.90;4.50;99857;;;;562151;243;24155;-78
2022/12/28 11:58:58;;;;;;;10.47;4.93;;;5.00;99.90;4.50;99854;;;;566076;253;24148;-77
2022/12/28 12:11:18;;;;;;;8.95;6.00;;;5.10;99.90;4.40;99817;;;;583860;234;34786;-79
2022/12/28 12:13:49;;;;;;;6.47;4.17;;;5.00;99.90;4.30;99807;;;;590169;239;24004;-83
2022/12/28 12:16:20;;;;;;;8.23;4.17;;;4.90;99.90;4.30;99812;;;;602022;234;24064;-81
2022/12/28 12:18:50;;;;;;;3.90;3.37;;;4.80;99.90;4.30;99809;;;;602900;234;24001;-80
2022/12/28 12:21:33;;;;;;;5.30;4.33;;;4.80;99.90;4.30;99803;;;;600753;234;24057;-81
2022/12/28 12:24:17;;;;;;;9.93;5.13;;;4.80;99.90;4.30;99792;;;;601809;237;24039;-84
2022/12/28 12:26:49;;;;;;;4.80;4.23;;;4.80;99.90;4.30;99784;;;;592878;238;24034;-81
2022/12/28 12:29:35;;;;;;;7.00;4.40;;;4.90;99.90;4.30;99779;;;;585631;241;24034;-80
2022/12/28 12:32:06;;;;;;;6.97;3.47;;;4.80;99.90;4.30;99779;;;;578280;244;24087;-82
2022/12/28 12:34:37;;;;;;;5.37;3.93;;;4.90;99.90;4.30;99778;;;;574144;244;24146;-82
2022/12/28 12:37:05;;;;;;;7.60;3.97;;;4.90;99.90;4.30;99772;;;;592485;242;24056;-81
2022/12/28 12:39:51;;;;;;;3.97;3.33;;;4.90;99.90;4.40;99777;;;;568346;244;25120;-83
2022/12/28 12:42:55;;;;;;;6.57;3.47;;;4.90;99.90;4.40;99766;;;;573494;245;24447;-82
2022/12/28 12:45:23;;;;;;;7.43;4.07;;;4.90;99.90;4.50;99772;;;;592975;239;24003;-86